createdAt,value
2019-02-12T00:00:28.243Z,38.60
2019-02-12T00:03:31.808Z,38.30
2019-02-12T00:06:35.661Z,32.47
2019-02-12T00:09:39.477Z,36.47
2019-02-12T00:12:43.027Z,31.37
2019-02-12T00:15:46.592Z,35.37
2019-02-12T00:18:50.144Z,30.83
2019-02-12T00:21:53.989Z,34.07
2019-02-12T00:24:57.538Z,29.47
2019-02-12T00:28:01.682Z,27.23
2019-02-12T00:31:05.250Z,33.47
2019-02-12T00:34:09.296Z,31.73
2019-02-12T00:37:12.854Z,31.23
2019-02-12T00:40:16.496Z,28.50
2019-02-12T00:43:20.049Z,24.87
2019-02-12T00:46:23.598Z,26.57
2019-02-12T00:49:27.158Z,25.40
2019-02-12T00:52:31.036Z,25.90
2019-02-12T00:55:34.865Z,26.57
2019-02-12T00:58:38.676Z,24.87
2019-02-12T01:01:42.797Z,24.00
2019-02-12T01:04:46.627Z,24.37
2019-02-12T01:07:50.193Z,24.20
2019-02-12T01:10:53.748Z,23.77
2019-02-12T01:13:57.929Z,24.13
2019-02-12T01:17:01.595Z,23.07
2019-02-12T01:20:06.500Z,22.33
2019-02-12T01:23:10.380Z,25.63
2019-02-12T01:26:14.291Z,24.90
2019-02-12T01:29:18.507Z,21.70
2019-02-12T01:32:22.062Z,20.93
2019-02-12T01:35:25.630Z,22.73
2019-02-12T01:38:29.182Z,21.73
2019-02-12T01:41:33.060Z,20.63
2019-02-12T01:44:36.843Z,20.73
2019-02-12T01:47:40.720Z,18.67
2019-02-12T01:50:44.560Z,19.77
2019-02-12T01:53:48.124Z,19.23
2019-02-12T01:56:52.274Z,16.73
2019-02-12T01:59:56.089Z,19.57
2019-02-12T02:02:59.996Z,18.57
2019-02-12T02:06:03.546Z,18.17
2019-02-12T02:09:07.307Z,19.60
2019-02-12T02:12:11.232Z,17.17
2019-02-12T02:15:15.072Z,18.50
2019-02-12T02:18:18.625Z,18.20
2019-02-12T02:21:22.516Z,17.13
2019-02-12T02:24:26.071Z,17.27
2019-02-12T02:27:29.703Z,16.77
2019-02-12T02:30:33.529Z,15.67
2019-02-12T02:33:37.070Z,14.80
2019-02-12T02:36:40.600Z,15.90
2019-02-12T02:39:44.162Z,13.67
2019-02-12T02:42:47.698Z,17.10
2019-02-12T02:45:51.300Z,14.30
2019-02-12T02:48:55.093Z,14.63
2019-02-12T02:51:58.843Z,15.43
2019-02-12T02:55:02.386Z,13.13
2019-02-12T02:58:06.482Z,14.33
2019-02-12T03:01:10.284Z,13.07
2019-02-12T03:04:14.099Z,13.77
2019-02-12T03:07:17.939Z,12.63
2019-02-12T03:10:21.481Z,14.40
2019-02-12T03:13:25.018Z,13.63
2019-02-12T03:16:28.867Z,10.83
2019-02-12T03:19:32.970Z,12.23
2019-02-12T03:22:36.525Z,10.67
2019-02-12T03:25:40.093Z,12.73
2019-02-12T03:28:43.888Z,11.43
2019-02-12T03:31:47.697Z,10.53
2019-02-12T03:34:51.492Z,10.70
2019-02-12T03:37:55.320Z,12.07
2019-02-12T03:40:59.291Z,10.23
2019-02-12T03:44:03.311Z,11.80
2019-02-12T03:47:06.834Z,9.87
2019-02-12T03:50:10.735Z,12.20
2019-02-12T03:53:14.581Z,10.13
2019-02-12T03:56:18.114Z,10.37
2019-02-12T03:59:22.090Z,11.53
2019-02-12T04:02:25.887Z,9.50
2019-02-12T04:05:29.503Z,7.00
2019-02-12T04:08:33.883Z,12.57
2019-02-12T04:11:37.693Z,10.20
2019-02-12T04:14:41.263Z,9.63
2019-02-12T04:17:45.448Z,10.00
2019-02-12T04:20:49.328Z,8.80
2019-02-12T04:23:52.872Z,8.23
2019-02-12T04:26:56.402Z,8.73
2019-02-12T04:30:00.550Z,8.60
2019-02-12T04:33:04.672Z,9.63
2019-02-12T04:36:08.211Z,8.23
2019-02-12T04:39:11.745Z,9.13
2019-02-12T04:42:15.584Z,8.30
2019-02-12T04:45:19.113Z,7.43
2019-02-12T04:48:22.933Z,7.60
2019-02-12T04:51:27.137Z,6.87
2019-02-12T04:54:31.266Z,7.40
2019-02-12T04:57:35.135Z,8.03
2019-02-12T05:00:39.202Z,9.00
2019-02-12T05:03:42.728Z,6.60
2019-02-12T05:06:46.768Z,7.37
2019-02-12T05:09:52.706Z,10.40
2019-02-12T05:12:56.585Z,37.60
2019-02-12T05:16:00.491Z,50.77
2019-02-12T05:19:04.036Z,46.83
2019-02-12T05:22:07.629Z,42.60
2019-02-12T05:25:11.243Z,27.47
2019-02-12T05:28:15.064Z,62.23
2019-02-12T05:31:18.912Z,59.53
2019-02-12T05:34:23.143Z,315.30
2019-02-12T05:37:27.249Z,72.90
2019-02-12T05:40:31.140Z,154.67
2019-02-12T05:43:34.981Z,146.47
2019-02-12T05:46:38.534Z,117.57
2019-02-12T05:49:42.412Z,85.20
2019-02-12T05:52:53.864Z,74.27
2019-02-12T05:55:51.901Z,69.67
2019-02-12T05:58:55.428Z,67.70
2019-02-12T06:01:59.224Z,73.13
2019-02-12T06:05:03.031Z,67.87
2019-02-12T06:08:06.797Z,65.80
2019-02-12T06:11:10.515Z,63.07
2019-02-12T06:14:14.063Z,59.70
2019-02-12T06:17:17.608Z,56.30
2019-02-12T06:20:21.148Z,60.43
2019-02-12T06:23:24.712Z,59.00
2019-02-12T06:26:28.270Z,53.03
2019-02-12T06:29:32.068Z,53.63
2019-02-12T06:32:35.611Z,52.10
2019-02-12T06:35:39.720Z,48.30
2019-02-12T06:38:43.273Z,51.87
2019-02-12T06:41:47.136Z,50.17
2019-02-12T06:44:50.764Z,48.73
2019-02-12T06:47:54.299Z,48.53
2019-02-12T06:50:58.163Z,46.67
2019-02-12T06:54:01.973Z,46.73
2019-02-12T06:57:05.604Z,40.93
2019-02-12T07:00:09.747Z,43.30
2019-02-12T07:03:15.734Z,39.87
2019-02-12T07:07:02.713Z,37.67
2019-02-12T07:10:11.431Z,36.13
2019-02-12T07:13:37.830Z,38.27
2019-02-12T07:16:53.763Z,38.33
2019-02-12T07:20:23.408Z,36.70
2019-02-12T07:24:22.133Z,35.10
2019-02-12T07:27:57.819Z,33.50
2019-02-12T07:31:35.259Z,33.80
2019-02-12T07:35:23.913Z,30.87
2019-02-12T07:38:50.925Z,35.37
2019-02-12T07:42:33.244Z,28.60
2019-02-12T07:46:18.332Z,31.93
2019-02-12T07:49:50.496Z,29.90
2019-02-12T07:53:06.079Z,28.97
2019-02-12T07:56:23.394Z,27.87
2019-02-12T07:59:55.383Z,34.07
2019-02-12T08:03:31.259Z,32.53
2019-02-12T08:06:56.526Z,26.43
2019-02-12T08:10:39.748Z,27.13
2019-02-12T08:14:26.504Z,27.97
2019-02-12T08:18:20.292Z,26.20
2019-02-12T08:21:36.159Z,25.67
2019-02-12T08:25:19.720Z,21.27
2019-02-12T08:29:03.557Z,24.73
2019-02-12T08:32:25.862Z,24.00
2019-02-12T08:36:02.688Z,22.93
2019-02-12T08:39:31.588Z,21.27
2019-02-12T08:42:49.888Z,22.70
2019-02-12T08:46:22.653Z,21.87
2019-02-12T08:49:54.132Z,22.07
2019-02-12T08:53:33.616Z,21.13
2019-02-12T08:57:06.666Z,19.67
2019-02-12T09:00:16.871Z,20.80
2019-02-12T09:03:56.621Z,19.53
2019-02-12T09:07:27.890Z,19.77
2019-02-12T09:10:57.831Z,18.50
2019-02-12T09:14:29.762Z,16.57
2019-02-12T09:18:05.423Z,17.50
2019-02-12T09:21:23.577Z,17.53
2019-02-12T09:25:00.476Z,15.23
2019-02-12T09:28:22.599Z,16.77
2019-02-12T09:32:06.807Z,15.73
2019-02-12T09:35:40.678Z,15.10
2019-02-12T09:38:54.844Z,18.37
2019-02-12T09:42:42.783Z,15.77
2019-02-12T09:46:38.085Z,17.07
2019-02-12T09:50:23.254Z,16.93
2019-02-12T09:54:16.540Z,15.73
2019-02-12T09:57:28.283Z,15.60
2019-02-12T10:00:41.750Z,16.97
2019-02-12T10:04:09.946Z,15.23
2019-02-12T10:07:39.610Z,16.77
2019-02-12T10:11:11.941Z,13.77
2019-02-12T10:14:39.275Z,12.53
2019-02-12T10:18:23.133Z,15.57
2019-02-12T10:21:55.322Z,15.93
2019-02-12T10:25:06.398Z,13.47
2019-02-12T10:28:53.510Z,14.77
2019-02-12T10:31:56.354Z,13.10
2019-02-12T10:34:59.879Z,11.30
2019-02-12T10:38:03.419Z,12.93
2019-02-12T10:41:06.961Z,13.90
2019-02-12T10:44:10.813Z,12.67
2019-02-12T10:47:14.366Z,14.20
2019-02-12T10:50:17.901Z,12.30
2019-02-12T10:53:22.115Z,11.17
2019-02-12T10:56:25.993Z,11.67
2019-02-12T10:59:29.763Z,11.83
2019-02-12T11:02:33.300Z,13.33
2019-02-12T11:05:36.833Z,10.20
2019-02-12T11:08:40.639Z,11.07
2019-02-12T11:11:44.167Z,12.23
2019-02-12T11:14:47.964Z,10.93
2019-02-12T11:17:51.835Z,10.67
2019-02-12T11:20:55.364Z,12.33
2019-02-12T11:23:59.016Z,12.73
2019-02-12T11:27:02.534Z,11.20
2019-02-12T11:30:07.245Z,12.93
2019-02-12T11:33:11.110Z,11.07
2019-02-12T11:36:14.646Z,9.27
2019-02-12T11:39:18.191Z,9.43
2019-02-12T11:42:21.737Z,9.70
2019-02-12T11:45:25.348Z,10.57
2019-02-12T11:48:28.887Z,11.73
2019-02-12T11:51:32.442Z,11.93
2019-02-12T11:54:43.417Z,9.63
2019-02-12T11:57:41.246Z,11.53
2019-02-12T12:01:10.581Z,8.90
2019-02-12T12:04:14.134Z,10.13
2019-02-12T12:07:17.671Z,13.30
2019-02-12T12:10:21.212Z,9.80
2019-02-12T12:13:25.744Z,9.83
2019-02-12T12:16:29.365Z,10.60
2019-02-12T12:19:32.958Z,8.63
2019-02-12T12:22:36.502Z,13.37
2019-02-12T12:25:40.030Z,9.00
2019-02-12T12:28:44.114Z,9.23
2019-02-12T12:31:47.668Z,8.20
2019-02-12T12:34:51.210Z,9.97
2019-02-12T12:37:54.750Z,9.80
2019-02-12T12:40:58.291Z,10.67
2019-02-12T12:44:01.830Z,9.83
2019-02-12T12:47:05.670Z,9.07
2019-02-12T12:50:10.011Z,7.77
2019-02-12T12:53:13.624Z,8.17
2019-02-12T12:56:17.829Z,7.67
2019-02-12T12:59:21.380Z,7.57
2019-02-12T13:02:24.931Z,8.10
2019-02-12T13:05:29.038Z,11.27
2019-02-12T13:08:32.566Z,11.57
2019-02-12T13:11:36.104Z,6.57
2019-02-12T13:14:39.958Z,7.70
2019-02-12T13:17:43.965Z,7.40
2019-02-12T13:20:47.502Z,7.83
2019-02-12T13:23:51.390Z,7.40
2019-02-12T13:26:55.326Z,6.23
2019-02-12T13:30:00.175Z,8.23
2019-02-12T13:33:04.138Z,9.77
2019-02-12T13:36:07.914Z,6.70
2019-02-12T13:39:11.444Z,7.47
2019-02-12T13:42:15.000Z,5.67
2019-02-12T13:45:18.533Z,7.33
2019-02-12T13:48:22.322Z,7.50
2019-02-12T13:51:25.857Z,7.27
2019-02-12T13:54:29.386Z,6.43
2019-02-12T13:57:32.914Z,6.83
2019-02-12T14:00:36.823Z,10.00
2019-02-12T14:03:40.678Z,7.80
2019-02-12T14:06:44.219Z,6.73
2019-02-12T14:09:48.018Z,7.27
2019-02-12T14:12:51.899Z,7.70
2019-02-12T14:15:55.427Z,8.53
2019-02-12T14:18:59.028Z,7.60
2019-02-12T14:22:02.967Z,6.00
2019-02-12T14:25:06.876Z,6.07
2019-02-12T14:28:10.658Z,6.93
2019-02-12T14:31:14.481Z,7.13
2019-02-12T14:34:17.990Z,7.90
2019-02-12T14:37:22.049Z,7.77
2019-02-12T14:40:25.588Z,4.70
2019-02-12T14:43:29.473Z,6.77
2019-02-12T14:46:33.011Z,6.03
2019-02-12T14:49:36.801Z,6.07
2019-02-12T14:52:40.357Z,4.00
2019-02-12T14:55:44.187Z,8.43
2019-02-12T14:58:48.047Z,6.30
2019-02-12T15:01:51.833Z,5.17
2019-02-12T15:05:00.423Z,8.00
2019-02-12T15:08:00.642Z,5.87
2019-02-12T15:11:04.175Z,5.10
2019-02-12T15:14:07.770Z,5.23
2019-02-12T15:17:11.329Z,6.43
2019-02-12T15:20:15.272Z,4.53
2019-02-12T15:23:18.824Z,6.23
2019-02-12T15:26:22.700Z,6.97
2019-02-12T15:29:26.527Z,6.40
2019-02-12T15:32:30.068Z,5.40
2019-02-12T15:35:34.041Z,5.77
2019-02-12T15:38:37.581Z,5.87
2019-02-12T15:41:41.713Z,6.40
2019-02-12T15:44:45.575Z,5.37
2019-02-12T15:47:49.282Z,6.23
2019-02-12T15:50:52.807Z,6.90
2019-02-12T15:53:56.656Z,6.53
2019-02-12T15:57:01.392Z,5.97
2019-02-12T16:00:08.963Z,4.27
2019-02-12T16:03:12.830Z,8.23
2019-02-12T16:06:17.679Z,4.63
2019-02-12T16:09:22.967Z,6.40
2019-02-12T16:12:28.438Z,6.10
2019-02-12T16:15:32.470Z,5.53
2019-02-12T16:18:36.006Z,4.13
2019-02-12T16:21:39.776Z,5.47
2019-02-12T16:24:43.873Z,5.33
2019-02-12T16:27:47.715Z,5.80
2019-02-12T16:30:51.250Z,5.67
2019-02-12T16:33:54.805Z,4.37
2019-02-12T16:36:58.337Z,6.47
2019-02-12T16:40:02.187Z,10.93
2019-02-12T16:43:06.134Z,8.17
2019-02-12T16:46:13.457Z,9.40
2019-02-12T16:49:16.989Z,6.30
2019-02-12T16:52:21.280Z,12.87
2019-02-12T16:55:24.835Z,31.43
2019-02-12T16:58:28.382Z,82.80
2019-02-12T17:01:32.167Z,26.17
2019-02-12T17:04:35.708Z,45.13
2019-02-12T17:07:39.270Z,45.03
2019-02-12T17:10:43.092Z,45.10
2019-02-12T17:13:46.719Z,41.97
2019-02-12T17:16:50.691Z,32.17
2019-02-12T17:19:54.609Z,30.97
2019-02-12T17:22:58.151Z,29.33
2019-02-12T17:26:02.023Z,29.17
2019-02-12T17:29:05.912Z,24.77
2019-02-12T17:32:09.456Z,25.97
2019-02-12T17:35:13.289Z,27.03
2019-02-12T17:38:17.168Z,25.97
2019-02-12T17:41:21.546Z,21.07
2019-02-12T17:44:25.401Z,21.47
2019-02-12T17:47:29.211Z,21.60
2019-02-12T17:50:32.756Z,21.20
2019-02-12T17:53:38.804Z,19.47
2019-02-12T17:56:42.351Z,19.03
2019-02-12T17:59:46.161Z,21.10
2019-02-12T18:02:49.997Z,21.27
2019-02-12T18:05:53.531Z,22.40
2019-02-12T18:08:57.082Z,19.37
2019-02-12T18:12:00.899Z,17.37
2019-02-12T18:15:05.028Z,17.23
2019-02-12T18:18:08.562Z,18.47
2019-02-12T18:21:12.109Z,19.43
2019-02-12T18:24:15.663Z,18.40
2019-02-12T18:27:19.204Z,17.17
2019-02-12T18:30:22.755Z,15.90
2019-02-12T18:33:26.655Z,41.37
2019-02-12T18:36:30.198Z,23.00
2019-02-12T18:39:33.766Z,64.37
2019-02-12T18:42:37.641Z,66.17
2019-02-12T18:45:41.778Z,56.67
2019-02-12T18:48:45.849Z,48.03
2019-02-12T18:51:49.624Z,45.23
2019-02-12T18:54:53.433Z,44.67
2019-02-12T18:57:57.250Z,37.60
2019-02-12T19:01:01.102Z,38.17
2019-02-12T19:04:04.940Z,37.63
2019-02-12T19:07:08.491Z,38.57
2019-02-12T19:10:13.043Z,34.40
2019-02-12T19:13:16.940Z,35.33
2019-02-12T19:16:20.576Z,39.87
2019-02-12T19:19:24.404Z,47.17
2019-02-12T19:22:27.966Z,50.67
2019-02-12T19:25:31.512Z,55.00
2019-02-12T19:28:35.058Z,50.57
2019-02-12T19:31:38.616Z,50.63
2019-02-12T19:34:42.417Z,46.43
2019-02-12T19:37:46.302Z,50.67
2019-02-12T19:40:49.858Z,44.80
2019-02-12T19:43:53.466Z,26.37
2019-02-12T19:46:57.071Z,38.70
2019-02-12T19:50:00.845Z,41.03
2019-02-12T19:53:04.663Z,42.07
2019-02-12T19:56:08.222Z,98.17
2019-02-12T19:59:12.343Z,96.07
2019-02-12T20:02:15.910Z,91.87
2019-02-12T20:05:19.752Z,89.20
2019-02-12T20:08:23.292Z,86.70
2019-02-12T20:11:27.171Z,81.13
2019-02-12T20:14:31.165Z,83.43
2019-02-12T20:17:35.023Z,82.60
2019-02-12T20:20:38.560Z,78.63
2019-02-12T20:23:42.223Z,79.03
2019-02-12T20:26:45.795Z,77.90
2019-02-12T20:29:49.607Z,69.23
2019-02-12T20:32:53.154Z,46.07
2019-02-12T20:35:56.957Z,45.17
2019-02-12T20:39:00.791Z,49.67
2019-02-12T20:42:04.334Z,48.10
2019-02-12T20:45:10.329Z,50.90
2019-02-12T20:48:13.872Z,42.67
2019-02-12T20:51:17.543Z,43.90
2019-02-12T20:54:21.083Z,49.20
2019-02-12T20:57:24.637Z,48.17
2019-02-12T21:00:28.437Z,45.23
2019-02-12T21:03:31.979Z,40.40
2019-02-12T21:06:35.520Z,44.50
2019-02-12T21:09:39.098Z,44.87
2019-02-12T21:12:42.623Z,108.30
2019-02-12T21:15:46.180Z,70.53
2019-02-12T21:18:49.734Z,117.00
2019-02-12T21:21:53.326Z,133.53
2019-02-12T21:24:56.874Z,129.63
2019-02-12T21:28:00.707Z,121.60
2019-02-12T21:31:04.267Z,120.33
2019-02-12T21:34:08.315Z,109.50
2019-02-12T21:37:11.863Z,108.90
2019-02-12T21:40:18.176Z,105.20
2019-02-12T21:43:22.066Z,105.10
2019-02-12T21:46:25.602Z,105.27
2019-02-12T21:49:29.416Z,103.60
2019-02-12T21:52:33.276Z,220.40
2019-02-12T21:55:37.123Z,163.57
2019-02-12T21:58:40.959Z,147.90
2019-02-12T22:01:44.817Z,128.23
2019-02-12T22:04:48.640Z,128.33
2019-02-12T22:07:52.456Z,114.87
2019-02-12T22:10:56.000Z,112.60
2019-02-12T22:13:59.549Z,105.07
2019-02-12T22:17:03.108Z,110.73
2019-02-12T22:20:07.659Z,101.60
2019-02-12T22:23:11.499Z,95.37
2019-02-12T22:26:15.045Z,89.43
2019-02-12T22:29:18.878Z,83.90
2019-02-12T22:32:22.436Z,87.30
2019-02-12T22:35:26.306Z,77.67
2019-02-12T22:38:30.136Z,80.27
2019-02-12T22:41:33.679Z,81.83
2019-02-12T22:44:37.229Z,75.53
2019-02-12T22:47:40.779Z,71.10
2019-02-12T22:50:44.335Z,68.77
2019-02-12T22:53:48.169Z,71.83
2019-02-12T22:56:52.380Z,60.53
2019-02-12T22:59:55.923Z,64.93
2019-02-12T23:02:59.792Z,62.23
2019-02-12T23:06:03.452Z,61.50
2019-02-12T23:09:14.564Z,58.70
2019-02-12T23:12:18.404Z,52.90
2019-02-12T23:15:22.267Z,52.57
2019-02-12T23:18:26.432Z,48.43
2019-02-12T23:21:29.969Z,45.57
2019-02-12T23:24:33.852Z,49.13
2019-02-12T23:27:37.717Z,45.00
2019-02-12T23:30:41.294Z,47.10
2019-02-12T23:33:44.847Z,42.53
2019-02-12T23:36:48.456Z,42.80
2019-02-12T23:39:52.073Z,45.80
2019-02-12T23:42:55.615Z,42.90
2019-02-12T23:45:59.785Z,35.80
2019-02-12T23:49:03.696Z,39.93
2019-02-12T23:52:07.571Z,31.93
2019-02-12T23:55:11.375Z,33.67
2019-02-12T23:58:14.912Z,36.77
